Pagrindinis puslapis
METAR-TAF:

METAR-TAF

Oro uostai :

Roswell International Air Center

Roswell, Naujoji Meksika, Jungtinės Amerikos Valstijos

platuma: 33-18-29N, ilguma: 104-30-28W, Aukštis: 1118 m

Dabartinis oras

Ataskaita buvo paskelbta 38 minutes, ne 10:51 UTC
Vėjas 5 kt iš Vakarų/Šiaurės Vakarų
Temperatūra 8°C
Drėgmė 36%
Slėgis 1021 hPa
Matomumas: 16.1 km
Giedras dangus

METAR: KROW 281051Z AUTO 30005KT 10SM CLR 08/M06 A3014 RMK AO2 SLP165 T00831061

Laikas: 05:29 (11:29 UTC)

Prognozė

Ataskaita buvo paskelbta 5 valandos ir 35 minutes, ne 05:54 UTC
Prognozė galioja nuo 28 metu 06 UTC su 29 metu 06 UTC
Vėjas 12 kt iš Šiaurės/Šiaurės Vakarų su gūsio iki 20 kt
Matomumas: 10 km
Giedras dangus
Nuo 28 metu 1500 UTC
Vėjas 6 kt nuo kintamojo kryptimis
Matomumas: 10 km
Giedras dangus

TAF: KROW 280554Z 2806/2906 34012G20KT P6SM SKC FM281500 VRB06KT P6SM SKC

Orai ataskaitas ir orų prognozės (METAR, TAF).

turimą stotys yra geltonos ir raudonos taškus žemėlapyje.

Perkelti pele per norėdami pamatyti stoties vardą.

Tada spustelėkite, norėdami matyti oro stebėjimo ir prognozės.

Norėdami pakeisti žemėlapį: spustelėkite ant žalios mygtukų su juodo kryžiaus žemyn,; žalią mygtuką su brūkšneliu, jei norite nutolinti; arba žalių rodyklių gretimoms žemėlapius.


METAR-TAF: